sensor_id;sensor_type;location;lat;lon;timestamp;temperature;humidity
15700;DHT22;7950;42.744;23.174;2023-07-28T00:01:56;13.90;99.90
15700;DHT22;7950;42.744;23.174;2023-07-28T00:04:25;13.90;99.90
15700;DHT22;7950;42.744;23.174;2023-07-28T00:06:53;13.80;99.90
15700;DHT22;7950;42.744;23.174;2023-07-28T00:09:24;13.90;99.90
15700;DHT22;7950;42.744;23.174;2023-07-28T00:11:52;13.90;99.90
15700;DHT22;7950;42.744;23.174;2023-07-28T00:14:21;13.90;99.90
15700;DHT22;7950;42.744;23.174;2023-07-28T00:16:51;14.00;99.90
15700;DHT22;7950;42.744;23.174;2023-07-28T00:19:19;14.00;99.90
15700;DHT22;7950;42.744;23.174;2023-07-28T00:21:49;14.00;99.90
15700;DHT22;7950;42.744;23.174;2023-07-28T00:24:18;14.00;99.90
15700;DHT22;7950;42.744;23.174;2023-07-28T00:26:48;13.90;99.90
15700;DHT22;7950;42.744;23.174;2023-07-28T00:29:17;13.80;99.90
15700;DHT22;7950;42.744;23.174;2023-07-28T00:31:45;13.70;99.90
15700;DHT22;7950;42.744;23.174;2023-07-28T00:34:14;13.80;99.90
15700;DHT22;7950;42.744;23.174;2023-07-28T00:36:42;13.80;99.90
15700;DHT22;7950;42.744;23.174;2023-07-28T00:39:11;13.80;99.90
15700;DHT22;7950;42.744;23.174;2023-07-28T00:41:40;13.70;99.90
15700;DHT22;7950;42.744;23.174;2023-07-28T00:44:09;13.60;99.90
15700;DHT22;7950;42.744;23.174;2023-07-28T00:46:38;13.60;99.90
15700;DHT22;7950;42.744;23.174;2023-07-28T00:49:07;13.60;99.90
15700;DHT22;7950;42.744;23.174;2023-07-28T00:51:35;13.50;99.90
15700;DHT22;7950;42.744;23.174;2023-07-28T00:54:05;13.60;99.90
15700;DHT22;7950;42.744;23.174;2023-07-28T00:56:34;13.60;99.90
15700;DHT22;7950;42.744;23.174;2023-07-28T00:59:03;13.60;99.90
15700;DHT22;7950;42.744;23.174;2023-07-28T01:01:33;13.50;99.90
15700;DHT22;7950;42.744;23.174;2023-07-28T01:04:02;13.50;99.90
15700;DHT22;7950;42.744;23.174;2023-07-28T01:06:39;13.60;99.90
15700;DHT22;7950;42.744;23.174;2023-07-28T01:09:18;13.60;99.90
15700;DHT22;7950;42.744;23.174;2023-07-28T01:11:53;13.70;99.90
15700;DHT22;7950;42.744;23.174;2023-07-28T01:14:22;13.50;99.90
15700;DHT22;7950;42.744;23.174;2023-07-28T01:16:52;13.50;99.90
15700;DHT22;7950;42.744;23.174;2023-07-28T01:19:21;13.50;99.90
15700;DHT22;7950;42.744;23.174;2023-07-28T01:21:54;13.40;99.90
15700;DHT22;7950;42.744;23.174;2023-07-28T01:24:41;13.30;99.90
15700;DHT22;7950;42.744;23.174;2023-07-28T01:27:16;13.20;99.90
15700;DHT22;7950;42.744;23.174;2023-07-28T01:29:46;13.30;99.90
15700;DHT22;7950;42.744;23.174;2023-07-28T01:32:15;13.50;99.90
15700;DHT22;7950;42.744;23.174;2023-07-28T01:34:44;13.50;99.90
15700;DHT22;7950;42.744;23.174;2023-07-28T01:37:12;13.50;99.90
15700;DHT22;7950;42.744;23.174;2023-07-28T01:39:41;13.50;99.90
15700;DHT22;7950;42.744;23.174;2023-07-28T01:42:10;13.40;99.90
15700;DHT22;7950;42.744;23.174;2023-07-28T01:44:40;13.40;99.90
15700;DHT22;7950;42.744;23.174;2023-07-28T01:47:09;13.50;99.90
15700;DHT22;7950;42.744;23.174;2023-07-28T01:49:37;13.50;99.90
15700;DHT22;7950;42.744;23.174;2023-07-28T01:52:06;13.50;99.90
15700;DHT22;7950;42.744;23.174;2023-07-28T01:54:35;13.40;99.90
15700;DHT22;7950;42.744;23.174;2023-07-28T01:57:04;13.30;99.90
15700;DHT22;7950;42.744;23.174;2023-07-28T01:59:33;13.40;99.90
15700;DHT22;7950;42.744;23.174;2023-07-28T02:02:03;13.60;99.90
15700;DHT22;7950;42.744;23.174;2023-07-28T02:04:32;13.70;99.90
15700;DHT22;7950;42.744;23.174;2023-07-28T02:07:01;13.70;99.90
15700;DHT22;7950;42.744;23.174;2023-07-28T02:09:29;13.70;99.90
15700;DHT22;7950;42.744;23.174;2023-07-28T02:11:58;13.50;99.90
15700;DHT22;7950;42.744;23.174;2023-07-28T02:14:26;13.40;99.90
15700;DHT22;7950;42.744;23.174;2023-07-28T02:16:54;13.30;99.90
15700;DHT22;7950;42.744;23.174;2023-07-28T02:19:25;13.20;99.90
15700;DHT22;7950;42.744;23.174;2023-07-28T02:21:53;13.20;99.90
15700;DHT22;7950;42.744;23.174;2023-07-28T02:24:22;13.10;99.90
15700;DHT22;7950;42.744;23.174;2023-07-28T02:26:51;13.10;99.90
15700;DHT22;7950;42.744;23.174;2023-07-28T02:29:21;13.10;99.90
15700;DHT22;7950;42.744;23.174;2023-07-28T02:31:50;13.10;99.90
15700;DHT22;7950;42.744;23.174;2023-07-28T02:34:18;13.10;99.90
15700;DHT22;7950;42.744;23.174;2023-07-28T02:36:48;13.10;99.90
15700;DHT22;7950;42.744;23.174;2023-07-28T02:39:17;13.10;99.90
15700;DHT22;7950;42.744;23.174;2023-07-28T02:41:45;13.10;99.90
15700;DHT22;7950;42.744;23.174;2023-07-28T02:44:14;13.20;99.90
15700;DHT22;7950;42.744;23.174;2023-07-28T02:46:42;13.30;99.90
15700;DHT22;7950;42.744;23.174;2023-07-28T02:49:11;13.20;99.90
15700;DHT22;7950;42.744;23.174;2023-07-28T02:51:39;13.20;99.90
15700;DHT22;7950;42.744;23.174;2023-07-28T02:54:10;13.20;99.90
15700;DHT22;7950;42.744;23.174;2023-07-28T02:56:38;13.20;99.90
15700;DHT22;7950;42.744;23.174;2023-07-28T02:59:07;13.00;99.90
15700;DHT22;7950;42.744;23.174;2023-07-28T03:01:36;12.80;99.90
15700;DHT22;7950;42.744;23.174;2023-07-28T03:04:04;12.50;99.90
15700;DHT22;7950;42.744;23.174;2023-07-28T03:06:33;12.40;99.90
15700;DHT22;7950;42.744;23.174;2023-07-28T03:09:02;12.40;99.90
15700;DHT22;7950;42.744;23.174;2023-07-28T03:11:32;12.20;99.90
15700;DHT22;7950;42.744;23.174;2023-07-28T03:14:00;12.10;99.90
15700;DHT22;7950;42.744;23.174;2023-07-28T03:16:29;12.10;99.90
15700;DHT22;7950;42.744;23.174;2023-07-28T03:18:58;12.10;99.90
15700;DHT22;7950;42.744;23.174;2023-07-28T03:21:29;12.10;99.90
15700;DHT22;7950;42.744;23.174;2023-07-28T03:23:58;12.10;99.90
15700;DHT22;7950;42.744;23.174;2023-07-28T03:26:27;12.00;99.90
15700;DHT22;7950;42.744;23.174;2023-07-28T03:28:57;12.00;99.90
15700;DHT22;7950;42.744;23.174;2023-07-28T03:31:25;12.10;99.90
15700;DHT22;7950;42.744;23.174;2023-07-28T03:33:54;12.20;99.90
15700;DHT22;7950;42.744;23.174;2023-07-28T03:36:22;12.20;99.90
15700;DHT22;7950;42.744;23.174;2023-07-28T03:38:51;12.20;99.90
15700;DHT22;7950;42.744;23.174;2023-07-28T03:41:20;12.10;99.90
15700;DHT22;7950;42.744;23.174;2023-07-28T03:43:49;12.10;99.90
15700;DHT22;7950;42.744;23.174;2023-07-28T03:46:19;12.10;99.90
15700;DHT22;7950;42.744;23.174;2023-07-28T03:48:47;12.10;99.90
15700;DHT22;7950;42.744;23.174;2023-07-28T03:51:16;12.20;99.90
15700;DHT22;7950;42.744;23.174;2023-07-28T03:53:44;12.20;99.90
15700;DHT22;7950;42.744;23.174;2023-07-28T03:56:13;12.30;99.90
15700;DHT22;7950;42.744;23.174;2023-07-28T03:58:41;12.20;99.90
15700;DHT22;7950;42.744;23.174;2023-07-28T04:01:10;12.20;99.90
15700;DHT22;7950;42.744;23.174;2023-07-28T04:03:40;12.30;99.90
15700;DHT22;7950;42.744;23.174;2023-07-28T04:06:11;12.40;99.90
15700;DHT22;7950;42.744;23.174;2023-07-28T04:08:39;12.50;99.90
15700;DHT22;7950;42.744;23.174;2023-07-28T04:11:08;12.50;99.90
15700;DHT22;7950;42.744;23.174;2023-07-28T04:13:37;12.60;99.90
15700;DHT22;7950;42.744;23.174;2023-07-28T04:16:05;12.70;99.90
15700;DHT22;7950;42.744;23.174;2023-07-28T04:18:34;12.70;99.90
15700;DHT22;7950;42.744;23.174;2023-07-28T04:21:04;12.80;99.90
15700;DHT22;7950;42.744;23.174;2023-07-28T04:23:32;13.00;99.90
15700;DHT22;7950;42.744;23.174;2023-07-28T04:26:01;13.20;99.90
15700;DHT22;7950;42.744;23.174;2023-07-28T04:28:29;13.30;99.90
15700;DHT22;7950;42.744;23.174;2023-07-28T04:30:58;13.50;99.90
15700;DHT22;7950;42.744;23.174;2023-07-28T04:33:27;13.80;99.90
15700;DHT22;7950;42.744;23.174;2023-07-28T04:35:56;14.00;99.90
15700;DHT22;7950;42.744;23.174;2023-07-28T04:38:26;14.20;99.90
15700;DHT22;7950;42.744;23.174;2023-07-28T04:40:54;14.30;99.90
15700;DHT22;7950;42.744;23.174;2023-07-28T04:43:22;14.40;99.90
15700;DHT22;7950;42.744;23.174;2023-07-28T04:45:51;14.50;99.90
15700;DHT22;7950;42.744;23.174;2023-07-28T04:48:20;14.70;99.90
15700;DHT22;7950;42.744;23.174;2023-07-28T04:50:48;14.80;99.90
15700;DHT22;7950;42.744;23.174;2023-07-28T04:53:17;14.90;99.90
15700;DHT22;7950;42.744;23.174;2023-07-28T04:55:46;14.90;99.90
15700;DHT22;7950;42.744;23.174;2023-07-28T04:58:15;14.90;99.90
15700;DHT22;7950;42.744;23.174;2023-07-28T05:00:44;15.00;99.90
15700;DHT22;7950;42.744;23.174;2023-07-28T05:03:12;15.10;99.90
15700;DHT22;7950;42.744;23.174;2023-07-28T05:05:43;15.30;99.90
15700;DHT22;7950;42.744;23.174;2023-07-28T05:08:12;15.50;99.90
15700;DHT22;7950;42.744;23.174;2023-07-28T05:10:41;15.70;99.90
15700;DHT22;7950;42.744;23.174;2023-07-28T05:13:11;15.90;99.90
15700;DHT22;7950;42.744;23.174;2023-07-28T05:15:40;16.00;99.90
15700;DHT22;7950;42.744;23.174;2023-07-28T05:18:09;16.10;99.90
15700;DHT22;7950;42.744;23.174;2023-07-28T05:20:37;16.10;99.90
15700;DHT22;7950;42.744;23.174;2023-07-28T05:23:06;16.10;99.90
15700;DHT22;7950;42.744;23.174;2023-07-28T05:25:34;16.10;99.90
15700;DHT22;7950;42.744;23.174;2023-07-28T05:28:03;16.00;99.90
15700;DHT22;7950;42.744;23.174;2023-07-28T05:30:33;16.10;99.90
15700;DHT22;7950;42.744;23.174;2023-07-28T05:33:02;16.30;99.90
15700;DHT22;7950;42.744;23.174;2023-07-28T05:35:30;16.50;99.90
15700;DHT22;7950;42.744;23.174;2023-07-28T05:37:59;16.70;99.90
15700;DHT22;7950;42.744;23.174;2023-07-28T05:40:27;16.80;99.90
15700;DHT22;7950;42.744;23.174;2023-07-28T05:42:56;17.00;99.90
15700;DHT22;7950;42.744;23.174;2023-07-28T05:45:24;17.10;99.90
15700;DHT22;7950;42.744;23.174;2023-07-28T05:47:54;17.10;99.90
15700;DHT22;7950;42.744;23.174;2023-07-28T05:50:23;17.20;99.90
15700;DHT22;7950;42.744;23.174;2023-07-28T05:52:52;17.30;99.90
15700;DHT22;7950;42.744;23.174;2023-07-28T05:55:20;17.40;99.90
15700;DHT22;7950;42.744;23.174;2023-07-28T05:57:49;17.50;99.90
15700;DHT22;7950;42.744;23.174;2023-07-28T06:00:17;17.60;99.90
15700;DHT22;7950;42.744;23.174;2023-07-28T06:02:46;17.60;99.90
15700;DHT22;7950;42.744;23.174;2023-07-28T06:05:16;17.60;99.90
15700;DHT22;7950;42.744;23.174;2023-07-28T06:07:45;17.80;99.90
15700;DHT22;7950;42.744;23.174;2023-07-28T06:10:14;17.90;99.90
15700;DHT22;7950;42.744;23.174;2023-07-28T06:12:42;18.00;99.90
15700;DHT22;7950;42.744;23.174;2023-07-28T06:15:13;18.30;99.90
15700;DHT22;7950;42.744;23.174;2023-07-28T06:17:42;18.40;99.90
15700;DHT22;7950;42.744;23.174;2023-07-28T06:20:11;18.50;99.90
15700;DHT22;7950;42.744;23.174;2023-07-28T06:22:41;18.60;99.90
15700;DHT22;7950;42.744;23.174;2023-07-28T06:25:09;18.60;99.10
15700;DHT22;7950;42.744;23.174;2023-07-28T06:27:39;18.70;97.60
15700;DHT22;7950;42.744;23.174;2023-07-28T06:30:10;18.80;97.80
15700;DHT22;7950;42.744;23.174;2023-07-28T06:32:39;18.90;97.10
15700;DHT22;7950;42.744;23.174;2023-07-28T06:35:08;19.10;97.40
15700;DHT22;7950;42.744;23.174;2023-07-28T06:37:37;19.20;97.30
15700;DHT22;7950;42.744;23.174;2023-07-28T06:40:08;19.30;96.10
15700;DHT22;7950;42.744;23.174;2023-07-28T06:42:37;19.40;95.50
15700;DHT22;7950;42.744;23.174;2023-07-28T06:45:06;19.50;94.80
15700;DHT22;7950;42.744;23.174;2023-07-28T06:47:35;19.50;94.50
15700;DHT22;7950;42.744;23.174;2023-07-28T06:50:04;19.80;95.00
15700;DHT22;7950;42.744;23.174;2023-07-28T06:52:33;19.80;92.70
15700;DHT22;7950;42.744;23.174;2023-07-28T06:55:02;19.90;93.30
15700;DHT22;7950;42.744;23.174;2023-07-28T06:57:32;20.00;92.60
15700;DHT22;7950;42.744;23.174;2023-07-28T07:00:02;20.00;91.80
15700;DHT22;7950;42.744;23.174;2023-07-28T07:02:31;20.10;91.70
15700;DHT22;7950;42.744;23.174;2023-07-28T07:04:59;20.10;92.00
15700;DHT22;7950;42.744;23.174;2023-07-28T07:07:28;20.20;90.90
15700;DHT22;7950;42.744;23.174;2023-07-28T07:09:57;20.30;91.80
15700;DHT22;7950;42.744;23.174;2023-07-28T07:12:25;20.50;91.80
15700;DHT22;7950;42.744;23.174;2023-07-28T07:14:55;20.60;90.60
15700;DHT22;7950;42.744;23.174;2023-07-28T07:17:24;20.80;90.50
15700;DHT22;7950;42.744;23.174;2023-07-28T07:19:53;20.90;90.00
15700;DHT22;7950;42.744;23.174;2023-07-28T07:22:21;20.90;88.70
15700;DHT22;7950;42.744;23.174;2023-07-28T07:24:50;21.10;87.10
15700;DHT22;7950;42.744;23.174;2023-07-28T07:27:18;21.00;83.80
15700;DHT22;7950;42.744;23.174;2023-07-28T07:29:47;21.20;88.00
15700;DHT22;7950;42.744;23.174;2023-07-28T07:32:17;21.30;85.40
15700;DHT22;7950;42.744;23.174;2023-07-28T07:34:45;21.40;81.00
15700;DHT22;7950;42.744;23.174;2023-07-28T07:37:14;21.50;83.00
15700;DHT22;7950;42.744;23.174;2023-07-28T07:39:42;21.50;83.30
15700;DHT22;7950;42.744;23.174;2023-07-28T07:42:12;21.70;82.00
15700;DHT22;7950;42.744;23.174;2023-07-28T07:44:41;21.80;81.40
15700;DHT22;7950;42.744;23.174;2023-07-28T07:47:13;21.90;79.50
15700;DHT22;7950;42.744;23.174;2023-07-28T07:49:44;22.10;81.20
15700;DHT22;7950;42.744;23.174;2023-07-28T07:52:12;22.20;78.40
15700;DHT22;7950;42.744;23.174;2023-07-28T07:54:41;22.40;77.30
15700;DHT22;7950;42.744;23.174;2023-07-28T07:57:09;22.50;75.50
15700;DHT22;7950;42.744;23.174;2023-07-28T07:59:38;22.60;75.40
15700;DHT22;7950;42.744;23.174;2023-07-28T08:02:07;22.50;76.70
15700;DHT22;7950;42.744;23.174;2023-07-28T08:04:35;22.50;74.00
15700;DHT22;7950;42.744;23.174;2023-07-28T08:07:06;22.60;73.30
15700;DHT22;7950;42.744;23.174;2023-07-28T08:09:34;22.70;73.50
15700;DHT22;7950;42.744;23.174;2023-07-28T08:12:04;22.90;74.00
15700;DHT22;7950;42.744;23.174;2023-07-28T08:14:34;23.10;73.90
15700;DHT22;7950;42.744;23.174;2023-07-28T08:17:02;23.40;74.10
15700;DHT22;7950;42.744;23.174;2023-07-28T08:19:31;23.60;69.70
15700;DHT22;7950;42.744;23.174;2023-07-28T08:22:00;23.60;69.70
15700;DHT22;7950;42.744;23.174;2023-07-28T08:24:31;23.70;68.40
15700;DHT22;7950;42.744;23.174;2023-07-28T08:27:00;23.80;69.60
15700;DHT22;7950;42.744;23.174;2023-07-28T08:29:28;23.70;66.40
15700;DHT22;7950;42.744;23.174;2023-07-28T08:31:57;23.80;68.40
15700;DHT22;7950;42.744;23.174;2023-07-28T08:34:25;23.90;66.10
15700;DHT22;7950;42.744;23.174;2023-07-28T08:36:54;24.00;66.70
15700;DHT22;7950;42.744;23.174;2023-07-28T08:39:23;24.10;69.10
15700;DHT22;7950;42.744;23.174;2023-07-28T08:41:59;24.20;66.40
15700;DHT22;7950;42.744;23.174;2023-07-28T08:44:30;24.40;65.00
15700;DHT22;7950;42.744;23.174;2023-07-28T08:47:00;24.30;65.50
15700;DHT22;7950;42.744;23.174;2023-07-28T08:49:30;24.30;64.90
15700;DHT22;7950;42.744;23.174;2023-07-28T08:52:04;24.30;64.60
15700;DHT22;7950;42.744;23.174;2023-07-28T08:54:34;24.40;62.80
15700;DHT22;7950;42.744;23.174;2023-07-28T08:57:04;24.30;64.10
15700;DHT22;7950;42.744;23.174;2023-07-28T08:59:33;24.40;66.30
15700;DHT22;7950;42.744;23.174;2023-07-28T09:02:03;24.50;63.70
15700;DHT22;7950;42.744;23.174;2023-07-28T09:04:33;24.60;65.00
15700;DHT22;7950;42.744;23.174;2023-07-28T09:07:04;24.80;62.50
15700;DHT22;7950;42.744;23.174;2023-07-28T09:09:33;24.80;62.00
15700;DHT22;7950;42.744;23.174;2023-07-28T09:12:06;24.90;61.80
15700;DHT22;7950;42.744;23.174;2023-07-28T09:14:36;25.10;61.40
15700;DHT22;7950;42.744;23.174;2023-07-28T09:17:10;25.10;60.50
15700;DHT22;7950;42.744;23.174;2023-07-28T09:19:50;25.10;60.70
15700;DHT22;7950;42.744;23.174;2023-07-28T09:22:19;25.30;61.30
15700;DHT22;7950;42.744;23.174;2023-07-28T09:24:50;25.50;60.10
15700;DHT22;7950;42.744;23.174;2023-07-28T09:27:21;25.60;58.70
15700;DHT22;7950;42.744;23.174;2023-07-28T09:29:53;25.60;59.40
15700;DHT22;7950;42.744;23.174;2023-07-28T09:32:30;25.70;58.90
15700;DHT22;7950;42.744;23.174;2023-07-28T09:35:06;25.90;58.80
15700;DHT22;7950;42.744;23.174;2023-07-28T09:37:38;26.10;58.80
15700;DHT22;7950;42.744;23.174;2023-07-28T09:40:09;26.40;57.40
15700;DHT22;7950;42.744;23.174;2023-07-28T09:42:41;26.50;56.70
15700;DHT22;7950;42.744;23.174;2023-07-28T09:45:13;26.60;56.60
15700;DHT22;7950;42.744;23.174;2023-07-28T09:48:02;26.70;55.30
15700;DHT22;7950;42.744;23.174;2023-07-28T09:50:37;26.70;55.60
15700;DHT22;7950;42.744;23.174;2023-07-28T09:53:09;26.80;56.60
15700;DHT22;7950;42.744;23.174;2023-07-28T09:55:39;27.00;55.50
15700;DHT22;7950;42.744;23.174;2023-07-28T09:58:12;27.10;55.00
15700;DHT22;7950;42.744;23.174;2023-07-28T10:00:45;27.30;54.90
15700;DHT22;7950;42.744;23.174;2023-07-28T10:03:16;27.40;54.40
15700;DHT22;7950;42.744;23.174;2023-07-28T10:05:45;27.60;54.50
15700;DHT22;7950;42.744;23.174;2023-07-28T10:08:15;27.70;53.20
15700;DHT22;7950;42.744;23.174;2023-07-28T10:10:44;27.80;52.50
15700;DHT22;7950;42.744;23.174;2023-07-28T10:13:21;27.80;51.70
15700;DHT22;7950;42.744;23.174;2023-07-28T10:15:50;27.70;52.40
15700;DHT22;7950;42.744;23.174;2023-07-28T10:18:20;27.60;51.50
15700;DHT22;7950;42.744;23.174;2023-07-28T10:20:49;27.50;51.90
15700;DHT22;7950;42.744;23.174;2023-07-28T10:23:21;27.40;51.70
15700;DHT22;7950;42.744;23.174;2023-07-28T10:25:56;27.30;52.10
15700;DHT22;7950;42.744;23.174;2023-07-28T10:28:30;27.40;52.90
15700;DHT22;7950;42.744;23.174;2023-07-28T10:31:01;27.50;52.90
15700;DHT22;7950;42.744;23.174;2023-07-28T10:33:31;27.60;52.70
15700;DHT22;7950;42.744;23.174;2023-07-28T10:36:14;27.60;51.10
15700;DHT22;7950;42.744;23.174;2023-07-28T10:38:44;27.60;52.20
15700;DHT22;7950;42.744;23.174;2023-07-28T10:41:14;27.70;52.00
15700;DHT22;7950;42.744;23.174;2023-07-28T10:43:46;27.90;50.80
15700;DHT22;7950;42.744;23.174;2023-07-28T10:46:16;27.80;50.10
15700;DHT22;7950;42.744;23.174;2023-07-28T10:48:47;27.60;51.60
15700;DHT22;7950;42.744;23.174;2023-07-28T10:51:23;27.70;52.60
15700;DHT22;7950;42.744;23.174;2023-07-28T10:53:55;27.80;50.20
15700;DHT22;7950;42.744;23.174;2023-07-28T10:56:25;27.80;51.10
15700;DHT22;7950;42.744;23.174;2023-07-28T10:59:00;27.80;50.00
15700;DHT22;7950;42.744;23.174;2023-07-28T11:01:33;27.90;51.50
15700;DHT22;7950;42.744;23.174;2023-07-28T11:04:10;28.10;48.60
15700;DHT22;7950;42.744;23.174;2023-07-28T11:06:42;28.30;48.20
15700;DHT22;7950;42.744;23.174;2023-07-28T11:09:13;28.30;47.40
15700;DHT22;7950;42.744;23.174;2023-07-28T11:11:44;28.20;46.80
15700;DHT22;7950;42.744;23.174;2023-07-28T11:14:17;28.30;46.70
15700;DHT22;7950;42.744;23.174;2023-07-28T11:16:46;28.40;48.50
15700;DHT22;7950;42.744;23.174;2023-07-28T11:19:16;28.60;48.30
15700;DHT22;7950;42.744;23.174;2023-07-28T11:21:53;28.70;46.60
15700;DHT22;7950;42.744;23.174;2023-07-28T11:24:23;28.80;46.30
15700;DHT22;7950;42.744;23.174;2023-07-28T11:26:53;28.90;47.00
15700;DHT22;7950;42.744;23.174;2023-07-28T11:29:24;29.10;47.40
15700;DHT22;7950;42.744;23.174;2023-07-28T11:31:52;29.20;48.20
15700;DHT22;7950;42.744;23.174;2023-07-28T11:34:21;29.30;46.40
15700;DHT22;7950;42.744;23.174;2023-07-28T11:36:50;29.40;46.00
15700;DHT22;7950;42.744;23.174;2023-07-28T11:39:19;29.40;46.50
15700;DHT22;7950;42.744;23.174;2023-07-28T11:41:49;29.20;45.90
15700;DHT22;7950;42.744;23.174;2023-07-28T11:44:21;29.10;46.10
15700;DHT22;7950;42.744;23.174;2023-07-28T11:46:52;29.00;45.90
15700;DHT22;7950;42.744;23.174;2023-07-28T11:49:22;29.10;46.50
15700;DHT22;7950;42.744;23.174;2023-07-28T11:51:52;29.20;47.20
15700;DHT22;7950;42.744;23.174;2023-07-28T11:54:26;29.40;46.00
15700;DHT22;7950;42.744;23.174;2023-07-28T11:56:56;29.40;44.80
15700;DHT22;7950;42.744;23.174;2023-07-28T11:59:25;29.30;44.30
15700;DHT22;7950;42.744;23.174;2023-07-28T12:01:56;29.20;45.70
15700;DHT22;7950;42.744;23.174;2023-07-28T12:04:30;29.30;46.00
15700;DHT22;7950;42.744;23.174;2023-07-28T12:07:07;29.50;45.60
15700;DHT22;7950;42.744;23.174;2023-07-28T12:09:52;29.60;46.30
15700;DHT22;7950;42.744;23.174;2023-07-28T12:12:24;29.70;46.20
15700;DHT22;7950;42.744;23.174;2023-07-28T12:14:54;29.80;46.10
15700;DHT22;7950;42.744;23.174;2023-07-28T12:17:27;29.80;44.10
15700;DHT22;7950;42.744;23.174;2023-07-28T12:20:16;29.80;46.00
15700;DHT22;7950;42.744;23.174;2023-07-28T12:22:45;29.90;45.10
15700;DHT22;7950;42.744;23.174;2023-07-28T12:25:15;30.00;44.30
15700;DHT22;7950;42.744;23.174;2023-07-28T12:27:44;30.00;44.30
15700;DHT22;7950;42.744;23.174;2023-07-28T12:30:12;30.00;44.90
15700;DHT22;7950;42.744;23.174;2023-07-28T12:32:44;30.10;44.30
15700;DHT22;7950;42.744;23.174;2023-07-28T12:35:16;30.10;44.30
15700;DHT22;7950;42.744;23.174;2023-07-28T12:37:45;30.10;44.80
15700;DHT22;7950;42.744;23.174;2023-07-28T12:40:17;30.00;45.50
15700;DHT22;7950;42.744;23.174;2023-07-28T12:42:50;30.00;46.80
15700;DHT22;7950;42.744;23.174;2023-07-28T12:45:21;29.90;44.20
15700;DHT22;7950;42.744;23.174;2023-07-28T12:47:54;29.80;46.10
15700;DHT22;7950;42.744;23.174;2023-07-28T12:50:25;29.90;47.30
15700;DHT22;7950;42.744;23.174;2023-07-28T12:52:53;30.10;46.70
15700;DHT22;7950;42.744;23.174;2023-07-28T12:55:25;30.20;46.00
15700;DHT22;7950;42.744;23.174;2023-07-28T12:57:54;30.20;46.60
15700;DHT22;7950;42.744;23.174;2023-07-28T13:00:25;30.10;46.70
15700;DHT22;7950;42.744;23.174;2023-07-28T13:02:59;30.10;46.30
15700;DHT22;7950;42.744;23.174;2023-07-28T13:05:28;30.10;46.70
15700;DHT22;7950;42.744;23.174;2023-07-28T13:07:57;30.20;47.50
15700;DHT22;7950;42.744;23.174;2023-07-28T13:10:29;30.30;45.50
15700;DHT22;7950;42.744;23.174;2023-07-28T13:13:00;30.40;45.30
15700;DHT22;7950;42.744;23.174;2023-07-28T13:15:29;30.40;44.50
15700;DHT22;7950;42.744;23.174;2023-07-28T13:17:59;30.30;44.50
15700;DHT22;7950;42.744;23.174;2023-07-28T13:20:27;30.10;45.70
15700;DHT22;7950;42.744;23.174;2023-07-28T13:22:56;30.30;47.40
15700;DHT22;7950;42.744;23.174;2023-07-28T13:25:24;30.30;45.30
15700;DHT22;7950;42.744;23.174;2023-07-28T13:27:53;30.30;46.60
15700;DHT22;7950;42.744;23.174;2023-07-28T13:30:21;30.30;45.00
15700;DHT22;7950;42.744;23.174;2023-07-28T13:32:51;30.40;46.20
15700;DHT22;7950;42.744;23.174;2023-07-28T13:35:22;30.60;46.60
15700;DHT22;7950;42.744;23.174;2023-07-28T13:37:52;30.70;45.40
15700;DHT22;7950;42.744;23.174;2023-07-28T13:40:20;30.80;44.40
15700;DHT22;7950;42.744;23.174;2023-07-28T13:42:49;30.80;44.00
15700;DHT22;7950;42.744;23.174;2023-07-28T13:45:17;30.90;44.70
15700;DHT22;7950;42.744;23.174;2023-07-28T13:47:46;30.90;45.10
15700;DHT22;7950;42.744;23.174;2023-07-28T13:50:14;30.80;44.80
15700;DHT22;7950;42.744;23.174;2023-07-28T13:52:44;30.90;44.30
15700;DHT22;7950;42.744;23.174;2023-07-28T13:55:16;30.80;44.40
15700;DHT22;7950;42.744;23.174;2023-07-28T13:57:46;30.80;44.30
15700;DHT22;7950;42.744;23.174;2023-07-28T14:00:14;30.80;44.10
15700;DHT22;7950;42.744;23.174;2023-07-28T14:02:43;30.80;44.40
15700;DHT22;7950;42.744;23.174;2023-07-28T14:05:12;30.80;44.20
15700;DHT22;7950;42.744;23.174;2023-07-28T14:07:41;30.90;44.00
15700;DHT22;7950;42.744;23.174;2023-07-28T14:10:12;30.80;43.60
15700;DHT22;7950;42.744;23.174;2023-07-28T14:12:40;30.90;44.60
15700;DHT22;7950;42.744;23.174;2023-07-28T14:15:09;30.90;43.70
15700;DHT22;7950;42.744;23.174;2023-07-28T14:17:38;31.00;44.40
15700;DHT22;7950;42.744;23.174;2023-07-28T14:20:07;31.00;42.80
15700;DHT22;7950;42.744;23.174;2023-07-28T14:22:37;31.00;43.20
15700;DHT22;7950;42.744;23.174;2023-07-28T14:25:06;31.10;42.60
15700;DHT22;7950;42.744;23.174;2023-07-28T14:27:38;31.10;42.50
15700;DHT22;7950;42.744;23.174;2023-07-28T14:30:07;31.10;41.80
15700;DHT22;7950;42.744;23.174;2023-07-28T14:32:37;31.10;42.50
15700;DHT22;7950;42.744;23.174;2023-07-28T14:35:06;31.10;42.70
15700;DHT22;7950;42.744;23.174;2023-07-28T14:37:35;30.90;41.70
15700;DHT22;7950;42.744;23.174;2023-07-28T14:40:04;30.80;43.40
15700;DHT22;7950;42.744;23.174;2023-07-28T14:42:34;30.90;42.90
15700;DHT22;7950;42.744;23.174;2023-07-28T14:45:04;30.90;43.40
15700;DHT22;7950;42.744;23.174;2023-07-28T14:47:34;30.80;42.90
15700;DHT22;7950;42.744;23.174;2023-07-28T14:50:02;30.80;42.90
15700;DHT22;7950;42.744;23.174;2023-07-28T14:52:31;30.90;43.60
15700;DHT22;7950;42.744;23.174;2023-07-28T14:55:00;30.90;42.80
15700;DHT22;7950;42.744;23.174;2023-07-28T14:57:28;31.00;41.90
15700;DHT22;7950;42.744;23.174;2023-07-28T15:00:02;31.00;42.30
15700;DHT22;7950;42.744;23.174;2023-07-28T15:02:33;31.00;42.30
15700;DHT22;7950;42.744;23.174;2023-07-28T15:05:03;31.00;43.00
15700;DHT22;7950;42.744;23.174;2023-07-28T15:07:33;30.90;41.30
15700;DHT22;7950;42.744;23.174;2023-07-28T15:10:03;30.90;41.90
15700;DHT22;7950;42.744;23.174;2023-07-28T15:12:32;30.80;41.30
15700;DHT22;7950;42.744;23.174;2023-07-28T15:15:00;30.70;41.60
15700;DHT22;7950;42.744;23.174;2023-07-28T15:17:30;30.70;40.70
15700;DHT22;7950;42.744;23.174;2023-07-28T15:19:59;30.70;40.90
15700;DHT22;7950;42.744;23.174;2023-07-28T15:22:27;30.70;40.20
15700;DHT22;7950;42.744;23.174;2023-07-28T15:24:56;30.60;39.60
15700;DHT22;7950;42.744;23.174;2023-07-28T15:27:24;30.50;40.00
15700;DHT22;7950;42.744;23.174;2023-07-28T15:29:53;30.50;41.10
15700;DHT22;7950;42.744;23.174;2023-07-28T15:32:21;30.50;40.70
15700;DHT22;7950;42.744;23.174;2023-07-28T15:34:51;30.50;40.50
15700;DHT22;7950;42.744;23.174;2023-07-28T15:37:20;30.40;39.80
15700;DHT22;7950;42.744;23.174;2023-07-28T15:39:48;30.30;39.80
15700;DHT22;7950;42.744;23.174;2023-07-28T15:42:17;30.30;40.30
15700;DHT22;7950;42.744;23.174;2023-07-28T15:44:46;30.20;39.10
15700;DHT22;7950;42.744;23.174;2023-07-28T15:47:17;30.20;39.30